createdAt,value
2023-03-11T00:01:26.658Z,3.30
2023-03-11T00:04:13.192Z,7.90
2023-03-11T00:07:01.193Z,5.28
2023-03-11T00:09:47.758Z,5.85
2023-03-11T00:12:34.101Z,6.25
2023-03-11T00:15:20.400Z,5.07
2023-03-11T00:18:07.596Z,6.03
2023-03-11T00:20:55.070Z,2.72
2023-03-11T00:23:42.521Z,5.93
2023-03-11T00:26:28.928Z,5.43
2023-03-11T00:29:15.028Z,7.18
2023-03-11T00:32:01.111Z,3.40
2023-03-11T00:34:47.426Z,3.97
2023-03-11T00:37:34.023Z,2.78
2023-03-11T00:40:23.808Z,4.60
2023-03-11T00:43:10.582Z,2.25
2023-03-11T00:45:57.371Z,3.50
2023-03-11T00:48:44.082Z,5.88
2023-03-11T00:51:32.554Z,5.95
2023-03-11T00:54:20.200Z,8.40
2023-03-11T00:57:08.356Z,5.00
2023-03-11T00:59:55.114Z,2.17
2023-03-11T01:02:41.398Z,4.90
2023-03-11T01:05:30.084Z,3.25
2023-03-11T01:08:16.149Z,6.57
2023-03-11T01:11:03.119Z,6.85
2023-03-11T01:13:50.684Z,3.17
2023-03-11T01:16:36.754Z,13.73
2023-03-11T01:19:22.794Z,7.00
2023-03-11T01:22:10.086Z,4.72
2023-03-11T01:24:56.361Z,4.90
2023-03-11T01:27:43.929Z,5.90
2023-03-11T01:30:32.001Z,4.22
2023-03-11T01:33:20.272Z,6.88
2023-03-11T01:36:07.716Z,3.35
2023-03-11T01:38:54.245Z,6.53
2023-03-11T01:41:40.778Z,13.85
2023-03-11T01:44:27.232Z,3.10
2023-03-11T01:47:35.945Z,7.70
2023-03-11T01:50:23.409Z,9.20
2023-03-11T01:53:10.556Z,5.47
2023-03-11T01:55:57.379Z,2.53
2023-03-11T01:58:48.886Z,7.95
2023-03-11T02:01:38.066Z,3.67
2023-03-11T02:04:27.096Z,4.43
2023-03-11T02:07:15.105Z,10.40
2023-03-11T02:10:02.079Z,3.42
2023-03-11T02:12:51.817Z,4.53
2023-03-11T02:15:47.659Z,3.90
2023-03-11T02:18:34.472Z,7.88
2023-03-11T02:21:27.063Z,6.80
2023-03-11T02:24:20.222Z,6.28
2023-03-11T02:27:10.277Z,3.50
2023-03-11T02:29:57.470Z,7.85
2023-03-11T02:32:48.312Z,4.75
2023-03-11T02:35:35.304Z,5.10
2023-03-11T02:38:21.636Z,6.30
2023-03-11T02:41:09.936Z,12.45
2023-03-11T02:43:58.948Z,4.50
2023-03-11T02:46:46.392Z,7.17
2023-03-11T02:49:33.617Z,4.78
2023-03-11T02:52:20.956Z,4.93
2023-03-11T02:55:09.907Z,6.65
2023-03-11T02:57:56.055Z,7.10
2023-03-11T03:00:43.749Z,5.45
2023-03-11T03:03:30.252Z,6.00
2023-03-11T03:06:16.824Z,5.35
2023-03-11T03:09:03.859Z,11.07
2023-03-11T03:11:49.979Z,3.95
2023-03-11T03:14:36.289Z,3.47
2023-03-11T03:17:23.823Z,5.95
2023-03-11T03:20:12.866Z,4.53
2023-03-11T03:23:02.482Z,3.65
2023-03-11T03:25:51.009Z,7.85
2023-03-11T03:28:37.553Z,4.90
2023-03-11T03:31:25.336Z,4.90
2023-03-11T03:34:13.280Z,5.13
2023-03-11T03:37:00.153Z,8.43
2023-03-11T03:39:46.842Z,2.88
2023-03-11T03:42:33.172Z,7.88
2023-03-11T03:45:19.671Z,5.03
2023-03-11T03:48:08.086Z,12.55
2023-03-11T03:51:05.463Z,8.93
2023-03-11T03:53:52.433Z,4.93
2023-03-11T03:56:38.969Z,7.43
2023-03-11T03:59:25.524Z,3.30
2023-03-11T04:02:15.387Z,15.65
2023-03-11T04:05:02.641Z,15.93
2023-03-11T04:07:50.567Z,4.30
2023-03-11T04:10:36.981Z,7.25
2023-03-11T04:13:24.299Z,8.60
2023-03-11T04:16:13.883Z,7.03
2023-03-11T04:19:00.322Z,5.60
2023-03-11T04:21:46.652Z,6.28
2023-03-11T04:24:34.614Z,3.00
2023-03-11T04:27:21.226Z,4.18
2023-03-11T04:30:09.347Z,7.45
2023-03-11T04:32:55.957Z,3.35
2023-03-11T04:35:43.750Z,6.20
2023-03-11T04:38:30.887Z,4.15
2023-03-11T04:41:18.738Z,2.13
2023-03-11T04:44:05.774Z,9.88
2023-03-11T04:46:52.340Z,6.20
2023-03-11T04:49:39.046Z,5.13
2023-03-11T04:52:25.939Z,4.97
2023-03-11T04:55:14.158Z,5.05
2023-03-11T04:58:02.919Z,9.25
2023-03-11T05:00:50.125Z,11.02
2023-03-11T05:03:36.897Z,7.60
2023-03-11T05:06:23.590Z,7.07
2023-03-11T05:09:10.128Z,6.55
2023-03-11T05:11:59.021Z,2.58
2023-03-11T05:14:48.312Z,5.70
2023-03-11T05:17:34.433Z,4.72
2023-03-11T05:20:21.349Z,9.25
2023-03-11T05:23:08.143Z,10.93
2023-03-11T05:25:56.410Z,8.55
2023-03-11T05:28:42.670Z,8.27
2023-03-11T05:31:30.704Z,7.57
2023-03-11T05:34:18.418Z,6.00
2023-03-11T05:37:05.382Z,5.65
2023-03-11T05:39:53.118Z,7.95
2023-03-11T05:42:41.753Z,6.80
2023-03-11T05:45:30.254Z,6.37
2023-03-11T05:48:20.680Z,4.55
2023-03-11T05:51:08.350Z,3.78
2023-03-11T05:53:54.915Z,6.88
2023-03-11T05:56:49.620Z,7.28
2023-03-11T05:59:37.750Z,5.43
2023-03-11T06:02:25.411Z,6.00
2023-03-11T06:05:14.067Z,11.02
2023-03-11T06:08:02.105Z,8.05
2023-03-11T06:10:49.117Z,12.23
2023-03-11T06:13:37.784Z,22.98
2023-03-11T06:16:25.641Z,16.17
2023-03-11T06:19:13.983Z,9.32
2023-03-11T06:22:06.749Z,10.88
2023-03-11T06:24:53.164Z,8.77
2023-03-11T06:27:40.181Z,7.47
2023-03-11T06:30:27.666Z,8.60
2023-03-11T06:33:34.079Z,8.35
2023-03-11T06:36:21.688Z,7.90
2023-03-11T06:39:14.140Z,6.70
2023-03-11T06:42:00.938Z,6.05
2023-03-11T06:44:48.742Z,4.15
2023-03-11T06:47:35.463Z,5.30
2023-03-11T06:50:23.687Z,5.82
2023-03-11T06:53:11.060Z,12.95
2023-03-11T06:56:04.221Z,17.70
2023-03-11T06:58:54.802Z,11.93
2023-03-11T07:01:42.502Z,6.97
2023-03-11T07:04:29.793Z,20.38
2023-03-11T07:07:17.016Z,15.95
2023-03-11T07:10:03.264Z,16.48
2023-03-11T07:12:52.167Z,15.80
2023-03-11T07:15:38.807Z,12.55
2023-03-11T07:18:25.621Z,17.23
2023-03-11T07:21:14.481Z,7.90
2023-03-11T07:24:02.884Z,9.52
2023-03-11T07:26:49.297Z,6.85
2023-03-11T07:29:36.829Z,8.50
2023-03-11T07:32:23.182Z,5.63
2023-03-11T07:35:10.109Z,6.93
2023-03-11T07:37:56.554Z,8.30
2023-03-11T07:40:43.330Z,8.57
2023-03-11T07:43:29.870Z,5.88
2023-03-11T07:46:19.739Z,7.07
2023-03-11T07:49:06.025Z,8.63
2023-03-11T07:51:52.258Z,8.38
2023-03-11T07:54:38.657Z,5.07
2023-03-11T07:57:25.238Z,5.68
2023-03-11T08:00:13.036Z,7.72
2023-03-11T08:03:00.690Z,5.88
2023-03-11T08:05:46.769Z,10.35
2023-03-11T08:08:33.226Z,6.03
2023-03-11T08:11:20.649Z,9.80
2023-03-11T08:14:07.237Z,7.05
2023-03-11T08:16:53.715Z,4.05
2023-03-11T08:19:41.130Z,4.47
2023-03-11T08:22:27.244Z,5.90
2023-03-11T08:25:13.682Z,6.65
2023-03-11T08:28:00.082Z,6.82
2023-03-11T08:30:46.510Z,6.90
2023-03-11T08:33:32.912Z,8.77
2023-03-11T08:36:21.865Z,5.57
2023-03-11T08:39:08.027Z,7.72
2023-03-11T08:41:54.132Z,9.75
2023-03-11T08:44:40.736Z,5.68
2023-03-11T08:47:26.801Z,8.00
2023-03-11T08:50:15.782Z,10.30
2023-03-11T08:53:04.276Z,4.03
2023-03-11T08:55:51.355Z,10.05
2023-03-11T08:58:37.840Z,4.72
2023-03-11T09:01:24.099Z,6.63
2023-03-11T09:04:11.962Z,6.70
2023-03-11T09:06:58.211Z,5.78
2023-03-11T09:09:46.017Z,2.38
2023-03-11T09:12:32.450Z,3.90
2023-03-11T09:15:18.927Z,2.38
2023-03-11T09:18:05.182Z,5.60
2023-03-11T09:20:51.839Z,3.97
2023-03-11T09:23:38.732Z,5.32
2023-03-11T09:26:26.620Z,5.13
2023-03-11T09:29:12.820Z,4.53
2023-03-11T09:31:59.833Z,6.47
2023-03-11T09:34:46.288Z,3.67
2023-03-11T09:37:32.457Z,8.02
2023-03-11T09:40:20.922Z,6.35
2023-03-11T09:43:20.099Z,4.45
2023-03-11T09:46:32.412Z,5.68
2023-03-11T09:49:27.832Z,8.88
2023-03-11T09:52:15.003Z,2.00
2023-03-11T09:55:06.961Z,8.25
2023-03-11T09:57:55.370Z,2.35
2023-03-11T10:00:44.165Z,9.15
2023-03-11T10:03:37.387Z,4.28
2023-03-11T10:06:27.579Z,7.50
2023-03-11T10:09:31.998Z,4.60
2023-03-11T10:12:33.326Z,8.48
2023-03-11T10:15:26.706Z,7.25
2023-03-11T10:18:29.514Z,6.30
2023-03-11T10:21:25.731Z,4.32
2023-03-11T10:24:28.142Z,3.35
2023-03-11T10:27:21.088Z,2.75
2023-03-11T10:30:18.695Z,4.72
2023-03-11T10:33:15.293Z,7.45
2023-03-11T10:36:07.628Z,3.20
2023-03-11T10:38:56.087Z,5.10
2023-03-11T10:41:45.611Z,2.75
2023-03-11T10:44:35.912Z,11.27
2023-03-11T10:47:24.283Z,5.07
2023-03-11T10:50:17.731Z,8.13
2023-03-11T10:53:10.755Z,10.27
2023-03-11T10:56:01.001Z,10.95
2023-03-11T10:58:50.920Z,7.32
2023-03-11T11:01:37.504Z,10.18
2023-03-11T11:04:35.848Z,14.30
2023-03-11T11:07:29.601Z,6.30
2023-03-11T11:10:20.215Z,2.10
2023-03-11T11:13:19.080Z,1.63
2023-03-11T11:16:20.286Z,4.63
2023-03-11T11:19:11.627Z,1.85
2023-03-11T11:22:05.663Z,4.57
2023-03-11T11:24:53.809Z,7.25
2023-03-11T11:27:55.959Z,3.60
2023-03-11T11:30:54.323Z,7.60
2023-03-11T11:33:50.171Z,4.95
2023-03-11T11:36:39.718Z,4.13
2023-03-11T11:39:28.666Z,4.72
2023-03-11T11:42:15.781Z,16.52
2023-03-11T11:45:05.632Z,9.43
2023-03-11T11:47:59.005Z,13.30
2023-03-11T11:50:49.598Z,4.05
2023-03-11T11:53:41.936Z,4.13
2023-03-11T11:56:28.596Z,3.45
2023-03-11T11:59:18.979Z,2.53
2023-03-11T12:02:23.712Z,6.57
2023-03-11T12:05:16.284Z,3.58
2023-03-11T12:08:13.970Z,1.85
2023-03-11T12:11:03.632Z,3.38
2023-03-11T12:14:03.089Z,5.45
2023-03-11T12:16:57.004Z,4.50
2023-03-11T12:19:51.810Z,3.88
2023-03-11T12:23:11.318Z,5.25
2023-03-11T12:26:15.478Z,6.57
2023-03-11T12:29:06.050Z,3.20
2023-03-11T12:31:53.438Z,5.15
2023-03-11T12:35:05.403Z,4.13
2023-03-11T12:38:05.428Z,7.53
2023-03-11T12:41:00.019Z,4.43
2023-03-11T12:44:23.240Z,3.38
2023-03-11T12:47:24.307Z,3.92
2023-03-11T12:50:41.085Z,5.07
2023-03-11T12:53:44.008Z,7.13
2023-03-11T12:56:39.625Z,7.35
2023-03-11T13:00:02.788Z,5.65
2023-03-11T13:03:09.489Z,4.65
2023-03-11T13:06:07.288Z,5.75
2023-03-11T13:08:56.279Z,2.20
2023-03-11T13:11:46.500Z,4.88
2023-03-11T13:14:33.573Z,2.53
2023-03-11T13:17:27.304Z,1.83
2023-03-11T13:20:45.105Z,4.95
2023-03-11T13:23:36.077Z,2.90
2023-03-11T13:26:38.348Z,2.40
2023-03-11T13:29:47.389Z,4.90
2023-03-11T13:32:52.379Z,3.25
2023-03-11T13:35:52.863Z,2.05
2023-03-11T13:41:45.042Z,4.18
2023-03-11T13:44:36.423Z,2.28
2023-03-11T13:47:24.322Z,2.90
2023-03-11T13:50:18.918Z,7.85
2023-03-11T13:53:11.289Z,1.92
2023-03-11T13:55:58.956Z,2.97
2023-03-11T13:58:45.017Z,3.10
2023-03-11T14:01:31.580Z,2.72
2023-03-11T14:04:24.615Z,4.30
2023-03-11T14:07:15.666Z,3.38
2023-03-11T14:10:26.633Z,2.42
2023-03-11T14:13:19.234Z,3.67
2023-03-11T14:16:09.897Z,3.95
2023-03-11T14:19:03.637Z,6.38
2023-03-11T14:21:52.074Z,2.78
2023-03-11T14:24:39.584Z,3.15
2023-03-11T14:27:25.752Z,1.08
2023-03-11T14:30:21.908Z,1.65
2023-03-11T14:33:22.408Z,2.28
2023-03-11T14:36:15.633Z,5.95
2023-03-11T14:39:01.966Z,2.20
2023-03-11T14:41:48.388Z,3.70
2023-03-11T14:44:39.828Z,5.25
2023-03-11T14:47:35.279Z,1.40
2023-03-11T14:50:24.339Z,1.00
2023-03-11T14:53:18.731Z,1.85
2023-03-11T14:56:09.592Z,1.63
2023-03-11T14:59:07.235Z,2.97
2023-03-11T15:01:58.814Z,1.95
2023-03-11T15:04:46.508Z,2.45
2023-03-11T15:07:33.512Z,2.50
2023-03-11T15:10:20.915Z,1.13
2023-03-11T15:13:11.643Z,1.83
2023-03-11T15:18:44.831Z,4.80
2023-03-11T15:21:32.676Z,2.25
2023-03-11T15:24:27.220Z,6.18
2023-03-11T15:27:28.367Z,9.80
2023-03-11T15:30:21.397Z,4.97
2023-03-11T15:33:21.810Z,2.78
2023-03-11T15:36:34.360Z,4.90
2023-03-11T15:39:26.130Z,4.68
2023-03-11T15:42:21.685Z,3.22
2023-03-11T15:45:19.491Z,2.45
2023-03-11T15:48:06.029Z,4.65
2023-03-11T15:50:55.037Z,0.93
2023-03-11T15:53:42.498Z,3.92
2023-03-11T15:56:28.790Z,5.40
2023-03-11T15:59:17.719Z,4.57
2023-03-11T16:02:04.734Z,4.68
2023-03-11T16:04:51.646Z,2.65
2023-03-11T16:07:40.099Z,4.20
2023-03-11T16:10:28.699Z,2.03
2023-03-11T16:13:16.529Z,3.30
2023-03-11T16:16:04.668Z,5.10
2023-03-11T16:18:51.096Z,7.68
2023-03-11T16:21:41.041Z,4.60
2023-03-11T16:24:27.194Z,3.77
2023-03-11T16:27:17.966Z,4.05
2023-03-11T16:30:04.485Z,3.33
2023-03-11T16:32:50.666Z,7.60
2023-03-11T16:35:39.894Z,5.63
2023-03-11T16:38:27.180Z,2.17
2023-03-11T16:41:16.094Z,10.88
2023-03-11T16:44:03.985Z,3.63
2023-03-11T16:46:50.599Z,1.48
2023-03-11T16:49:40.362Z,2.47
2023-03-11T16:52:29.296Z,3.85
2023-03-11T16:55:15.756Z,3.08
2023-03-11T16:58:02.116Z,3.88
2023-03-11T17:00:50.117Z,2.63
2023-03-11T17:03:42.541Z,1.98
2023-03-11T17:06:29.320Z,3.60
2023-03-11T17:09:15.909Z,7.75
2023-03-11T17:12:02.735Z,2.03
2023-03-11T17:14:49.677Z,3.58
2023-03-11T17:17:37.549Z,2.53
2023-03-11T17:20:23.612Z,2.92
2023-03-11T17:23:10.139Z,17.67
2023-03-11T17:26:00.095Z,7.32
2023-03-11T17:28:48.046Z,3.33
2023-03-11T17:31:39.205Z,4.32
2023-03-11T17:34:27.486Z,5.75
2023-03-11T17:37:15.332Z,3.35
2023-03-11T17:40:01.795Z,7.57
2023-03-11T17:42:48.452Z,9.40
2023-03-11T17:45:34.840Z,9.23
2023-03-11T17:48:22.066Z,5.78
2023-03-11T17:51:12.215Z,8.93
2023-03-11T17:53:59.505Z,4.63
2023-03-11T17:56:45.735Z,5.60
2023-03-11T17:59:32.094Z,5.43
2023-03-11T18:02:19.260Z,2.53
2023-03-11T18:05:06.953Z,2.58
2023-03-11T18:07:54.951Z,3.08
2023-03-11T18:10:41.318Z,5.15
2023-03-11T18:13:28.523Z,4.85
2023-03-11T18:16:16.563Z,11.38
2023-03-11T18:19:03.033Z,8.43
2023-03-11T18:21:49.319Z,6.10
2023-03-11T18:24:37.109Z,7.55
2023-03-11T18:27:24.408Z,15.27
2023-03-11T18:30:12.162Z,7.78
2023-03-11T18:32:58.430Z,9.77
2023-03-11T18:35:44.948Z,5.25
2023-03-11T18:38:31.309Z,7.57
2023-03-11T18:41:19.358Z,9.50
2023-03-11T18:44:05.888Z,7.70
2023-03-11T18:46:51.878Z,8.38
2023-03-11T18:49:39.035Z,24.25
2023-03-11T18:52:25.371Z,12.88
2023-03-11T18:55:11.567Z,6.25
2023-03-11T18:57:59.290Z,6.10
2023-03-11T19:00:46.099Z,7.38
2023-03-11T19:03:33.158Z,7.20
2023-03-11T19:06:20.394Z,5.53
2023-03-11T19:09:06.823Z,7.60
2023-03-11T19:11:52.946Z,7.78
2023-03-11T19:14:41.143Z,7.40
2023-03-11T19:17:27.770Z,6.10
2023-03-11T19:20:14.077Z,8.10
2023-03-11T19:23:00.805Z,6.55
2023-03-11T19:26:00.753Z,8.82
2023-03-11T19:28:49.317Z,13.52
2023-03-11T19:31:40.956Z,11.02
2023-03-11T19:34:28.894Z,7.80
2023-03-11T19:37:17.031Z,8.50
2023-03-11T19:40:11.328Z,8.95
2023-03-11T19:43:00.583Z,10.45
2023-03-11T19:45:48.941Z,10.00
2023-03-11T19:48:38.453Z,9.20
2023-03-11T19:51:28.470Z,14.10
2023-03-11T19:54:25.645Z,18.10
2023-03-11T19:57:12.170Z,21.58
2023-03-11T19:59:58.851Z,25.00
2023-03-11T20:02:45.493Z,21.33
2023-03-11T20:05:36.183Z,13.02
2023-03-11T20:08:24.213Z,13.65
2023-03-11T20:11:10.648Z,43.25
2023-03-11T20:13:57.646Z,51.13
2023-03-11T20:16:44.185Z,43.97
2023-03-11T20:19:30.565Z,49.70
2023-03-11T20:22:19.903Z,44.40
2023-03-11T20:25:07.463Z,39.63
2023-03-11T20:27:54.829Z,36.88
2023-03-11T20:30:53.179Z,31.95
2023-03-11T20:33:45.570Z,26.10
2023-03-11T20:36:38.151Z,25.23
2023-03-11T20:39:25.971Z,24.50
2023-03-11T20:42:12.390Z,27.33
2023-03-11T20:44:58.930Z,19.17
2023-03-11T20:47:45.535Z,28.02
2023-03-11T20:50:31.866Z,23.80
2023-03-11T20:53:18.368Z,38.40
2023-03-11T20:56:09.666Z,42.70
2023-03-11T20:58:58.964Z,41.20
2023-03-11T21:01:45.830Z,47.22
2023-03-11T21:04:32.383Z,63.15
2023-03-11T21:07:19.051Z,18.17
2023-03-11T21:10:06.841Z,15.00
2023-03-11T21:12:54.755Z,12.15
2023-03-11T21:15:41.643Z,13.43
2023-03-11T21:18:28.101Z,15.95
2023-03-11T21:21:16.906Z,16.55
2023-03-11T21:24:04.175Z,24.95
2023-03-11T21:26:50.635Z,19.30
2023-03-11T21:29:38.285Z,18.60
2023-03-11T21:32:26.274Z,21.10
2023-03-11T21:35:13.195Z,21.88
2023-03-11T21:38:00.008Z,19.13
2023-03-11T21:40:46.342Z,17.10
2023-03-11T21:43:33.233Z,22.95
2023-03-11T21:46:23.978Z,20.15
2023-03-11T21:49:10.472Z,21.27
2023-03-11T21:51:56.971Z,16.35
2023-03-11T21:54:43.487Z,14.15
2023-03-11T21:57:29.568Z,15.55
2023-03-11T22:00:16.482Z,12.25
2023-03-11T22:03:04.613Z,22.63
2023-03-11T22:05:56.830Z,30.98
2023-03-11T22:08:43.407Z,19.38
2023-03-11T22:11:30.168Z,33.33
2023-03-11T22:14:16.507Z,25.98
2023-03-11T22:17:02.756Z,35.92
2023-03-11T22:19:50.801Z,21.48
2023-03-11T22:22:37.414Z,16.25
2023-03-11T22:25:23.901Z,16.65
2023-03-11T22:28:12.111Z,16.85
2023-03-11T22:30:58.501Z,13.07
2023-03-11T22:33:45.166Z,14.40
2023-03-11T22:36:32.940Z,13.23
2023-03-11T22:39:19.757Z,16.30
2023-03-11T22:42:06.525Z,19.08
2023-03-11T22:44:52.989Z,13.55
2023-03-11T22:47:39.413Z,14.40
2023-03-11T22:50:25.938Z,16.33
2023-03-11T22:53:15.056Z,13.25
2023-03-11T22:56:02.042Z,15.52
2023-03-11T22:58:48.238Z,14.43
2023-03-11T23:01:34.765Z,12.57
2023-03-11T23:04:21.037Z,18.60
2023-03-11T23:07:07.718Z,15.10
2023-03-11T23:09:56.635Z,18.95
2023-03-11T23:12:43.129Z,15.52
2023-03-11T23:15:29.571Z,11.95
2023-03-11T23:18:17.150Z,15.73
2023-03-11T23:21:03.160Z,15.75
2023-03-11T23:23:50.255Z,13.05
2023-03-11T23:26:38.550Z,12.13
2023-03-11T23:29:24.943Z,15.45
2023-03-11T23:32:11.540Z,18.02
2023-03-11T23:34:57.904Z,11.93
2023-03-11T23:37:47.968Z,15.57
2023-03-11T23:40:34.453Z,12.65
2023-03-11T23:43:22.233Z,12.73
2023-03-11T23:46:10.205Z,12.10
2023-03-11T23:48:56.624Z,11.57
2023-03-11T23:51:43.070Z,13.55
2023-03-11T23:54:29.613Z,20.42
2023-03-11T23:57:15.893Z,20.35
